Licenciado Adolfo Lopez Mateos International Airport
MMTO : rendu visible

Aérodrome :











RETROUVEZ-NOUS SUR...

 
LOGIN :

S'inscrire | Disclaimer

   EN    FR    IT 

 









Légende :    VFR   VFR Marginal   IFR   IFR Intensif   IFR Très Intensif
Visi : 
Plafond : 
>= 8 km
>= 3000ft
5 à 8 km
1000 à 3000 ft
1500m à 5 km
500 à 1000 ft
800 à 1500m
200 à 500 ft
< 800m
< 200 ft
Symboles :   Orages  Brouillard  Fortes neiges  Fortes précipitations  Vent > 20 kt






- Altitude de l'aérodrome : 8466 ft
- Code IATA : TLC


MMTO - Licenciado Adolfo Lopez Mateos International

DERNIER METAR :
  • 241449Z 00000KT 4SM SKC 08/02 A3047 RMK SLP160 57008 979 HZY

METARs EXPIRÉS :
  • 241346Z 00000KT 4SM SKC 03/01 A3045 RMK HZY
  • 241247Z 00000KT 5SM SKC 01/M02 A3042 RMK HZY

TAF TAF MMTO
Valide du 24 à 12h jusqu'au 25 à 18h UTC


241126Z 2412/2518 00000KT 6SM HZ SKC TX21/2412Z TN02/2412Z
TEMPO 2412/2415 2SM BR HZ
FM241800 03010KT 6SM HZ SKC
FM250400 03005KT 6SM HZ SKC
TEMPO 2512/2515 3SM HZ
FIR MMFR / Amérique du Nord



MET'MAP, la Météo Aéronautique d'un coup d'oeil ! - Copyright ORBIFLY Décembre 2007 - Disclaimer

ORBIFLY MET'MAP TEAM :

Programmation & Développement : Alexandra Zaïnal
Sur une idée originale de : Baudouin d'Aumeries
Assistance à la programmation : Marc-Olivier Méhu
Soutien technique & logistique : Manuel Goepfert

Contact : metmap@orbifly.com




SOURCES & CREDITS :

   NOAA       Earth
Advisory